Richmond West, FL

8:29 AM EST on December 10, 2016 (GMT -0500)
Jaremt | | Change Station

Elev 33 ft 25.63 °N, 80.43 °W | Updated 16 seconds ago

Light Rain
Light Rain
66.9 °F
Feels Like 66.9 °F
N
1.7
Wind Variable Wind from East

Today
High -- | Low -- °F
--% Chance of Precip.
Yesterday
High -- | Low -- °F
Precip. -- in
Pressure 30.23 in
Visibility 10.0 miles
Clouds Mostly Cloudy 500 ft
Overcast 1400 ft
Dew Point 63 °F
Humidity 87%
Rainfall 0.00 in
Snow Depth Not available.
6:57 AM 5:31 PM
Waxing Gibbous, 83% visible
METAR KTMB 101253Z 02008KT 10SM -RA BKN005 OVC014 19/18 A3023 RMK AO2 RAB27 SLP237 P0000 T01940183
Pressure 30.23 in
Visibility 10.0 miles
Clouds Mostly Cloudy 500 ft
Overcast 1400 ft
Dew Point 63 °F
Humidity 87%
Rainfall 0.00 in
Snow Depth Not available.
6:57 AM 5:31 PM
Waxing Gibbous, 83% visible
METAR KTMB 101253Z 02008KT 10SM -RA BKN005 OVC014 19/18 A3023 RMK AO2 RAB27 SLP237 P0000 T01940183

10-Day Weather Forecast

Almanac

Astronomy

Dec. 10, 2016 Rise Set
Actual Time
Civil Twilight
Nautical Twilight
Astronomical Twilight
Moon
Length of Visible Light
Length of Day
Tomorrow will be .
, % of the Moon is Illuminated

Today's Extremes

State Highs State Lows

Community

WunderPhotos

Upload Photos

1,956,540 photos uploaded!

WunderBlog® & News

Nearby

Air Quality

  Air Quality AQ Index Pollutant
Not available.

Snow Depth

Station Depth Elevation

Earthquake Activity

City Distance Mag. Time & Date
Minimum magnitude displayed is 2.5.

Coastal Water Temperatures

Place Temperature

Stations

Nearby Weather Stations

Station Location Temp. Windchill Dew Point Humidity Wind Precip. Elev Updated Type
                   

Watches & Warnings

There are currently no watches in effect.